METAR Data
IDs: Format: Raw Decoded Include TAF

Data at: 1157 UTC 16 Feb 2019

PAOM 161053Z AUTO 09016KT 8SM BLSN OVC004 M06/M06 A2966 RMK AO2 SLP043 I1000 T10611061 TSNO $
PAOM 161017Z AUTO 09015KT 5SM BLSN OVC004 M07/M07 A2965 RMK AO2 T10671067 TSNO $
PAOM 161010Z AUTO 09016KT 4SM BLSN OVC005 M07/M07 A2965 RMK AO2 T10671072 TSNO $
PAOM 160953Z AUTO 09018KT 2 1/2SM BLSN OVC005 M07/M07 A2965 RMK AO2 SLP042 T10721072 TSNO $
PAOM 160946Z AUTO 09015KT 2SM BLSN OVC005 M07/M07 A2965 RMK AO2 T10671072 TSNO $
PAOM 160916Z AUTO 09016KT 1 1/4SM BLSN OVC005 M08/M08 A2964 RMK AO2 T10781078 TSNO $
PAOM 160907Z AUTO 09018KT 3/4SM R28/6000VP6000FT BLSN OVC006 M08/M08 A2964 RMK AO2 T10781083 TSNO $
PAOM 160853Z AUTO 09017KT 1SM R28/P6000FT BLSN OVC006 M08/M08 A2964 RMK SNB0755E46 SLP038 P0000 60001 T10781083 410781106 58002 TSNO $ VIA AUTODIAL
PAOM 160820Z AUTO 09021KT 1SM R28/P6000FT -SN BLSN OVC007 M08/M09 A2964 RMK AO2 SNB0755 P0000 T10831089 TSNO $
PAOM 160810Z AUTO 09018KT 3/4SM R28/6000VP6000FT -SN BLSN OVC007 M08/M09 A2964 RMK AO2 SNB0755 P0000 T10831089 TSNO $
PAOM 160800Z AUTO 10020KT 1SM R28/6000VP6000FT -SN BLSN OVC007 M08/M09 A2964 RMK AO2 SNB0755 P0000 T10831089 TSNO $
PAOM 160753Z AUTO 10020KT 3/4SM R28/6000VP6000FT BLSN OVC007 M09/M09 A2964 RMK AO2 PK WND 09028/0713 SNE31 SLP037 P0001 T10891089 TSNO $
PAOM 160653Z 09019KT 1 1/4SM -SN BLSN OVC010 M09/M09 A2965 RMK AO2 PK WND 09028/0618 SLP041 P0000 T10891089 $
PAOM 160637Z 10021KT 1SM R28/P6000FT -SN BLSN OVC014 M09/M09 A2965 RMK AO2 PK WND 09028/0618 P0000 T10891094 $
PAOM 160627Z 10019G28KT 1SM R28/P6000FT -SN BLSN OVC015 M09/M09 A2965 RMK AO2 PK WND 09028/0618 P0000 T10941094 $
PAOM 160605Z 10021G28KT 3/4SM R28/5000VP6000FT -SN BLSN BKN015 OVC021 M09/M10 A2965 RMK AO2 PK WND 10028/0557 P0000 T10941100 $
PAOM 160553Z 09022G27KT 1/2SM R28/4000V5000FT SN BLSN BKN011 OVC022 M09/M10 A2965 RMK AO2 PK WND 10035/0524 SLP039 P0003 60007 T10941100 11094 21106 56007 $
PAOM 160522Z 10020G32KT 1/4SM R28/3500V5000FT +SN BLSN VV013 M09/M10 A2964 RMK AO2 PK WND 10032/0514 P0001 T10941100 $
PAOM 160453Z 10024G30KT 1/2SM R28/3500V5500FT SN BLSN BKN017 OVC022 M09/M10 A2965 RMK PK WND 10032/0441 SLP040 P0002 T10941100 $ VIA AUTODIAL
PAOM 160419Z 10025G32KT 1/4SM R28/2600V4500FT +SN BLSN BKN016 OVC025 M10/M11 A2965 RMK AO2 PK WND 10032/0406 P0001 T11001106 $
PAOM 160353Z 10022G31KT 1/4SM R28/2200V2800FT +SN BLSN VV013 M10/M11 A2966 RMK AO2 PK WND 10037/0309 SLP043 P0002 T11001106
PAOM 160336Z 10024G32KT 1/4SM R28/1800V2400FT +SN BLSN VV012 M11/M11 A2966 RMK AO2 PK WND 10037/0309 P0002 T11061111
PAOM 160323Z 10026G35KT M1/4SM R28/1000V2000FT +SN BLSN VV010 M11/M11 A2966 RMK AO2 PK WND 10037/0309 P0001 T11061111
PAOM 160312Z 09031G37KT 1/4SM R28/2000V2800FT +SN BLSN VV014 M11/M12 A2965 RMK AO2 PK WND 10037/0309 P0000 T11061117
PAOM 160256Z 10024G31KT 1 1/4SM R28/5000VP6000FT -SN BLSN OVC028 M10/M12 A2967 RMK AO2 PK WND 10030/0254 P0000 T11001117
PAOM 160153Z 09026G34KT 1 1/4SM BLSN BR BKN047 OVC060 M11/M12 A2969 RMK PK WND 10036/0131 SLP055 T11061117 VIA AUTODIAL
PAOM 160100Z 09024G31KT 1 1/4SM BLSN BR SCT014 BKN085 BKN110 M11/M12 A2972 RMK AO2 PK WND 08031/0054 T11061117
PAOM 160044Z 09025G34KT 2SM R28/6000VP6000FT BLSN BR FEW007 FEW014 OVC085 M11/M12 A2973 RMK AO2 PK WND 09034/0036 T11061117
PAOM 152353Z 09024G32KT 2SM BLSN BR OVC075 M11/M12 A2976 RMK PK WND 10036/2257 SLP079 60000 T11061117 11094 21106 57032 VIA AUTODIAL
PAOM 152351Z 09024G32KT 2SM BLSN BR OVC075 M11/M12 A2976 RMK PK WND 10036/2257 VIA AUTODIAL
PAOM 152324Z 09025G33KT 1SM R28/P6000FT BLSN BR SCT037 OVC100 M11/M12 A2978 RMK AO2 PK WND 10036/2257 T11061117
PAOM 152311Z 09029G36KT 1 1/4SM BLSN BR OVC100 M11/M12 A2979 RMK AO2 PK WND 10036/2257 T11061117
PAOM 152253Z 09026G36KT 1 1/4SM BLSN BR FEW005 BKN110 M11/M12 A2980 RMK AO2 PK WND 09036/2251 SLP091 T11061117
PAOM 152238Z 09024G31KT 1 1/4SM BLSN BR FEW006 SCT034 BKN120 M11/M11 A2980 RMK AO2 PK WND 10034/2223 T11061111
PAOM 152202Z 09025G31KT 1 3/4SM BLSN BR FEW007 OVC034 M10/M11 A2982 RMK AO2 PK WND 09031/2202 T11001111
PAOM 152153Z 08020G28KT 2SM BR OVC034 M10/M11 A2982 RMK AO2 PK WND 09030/2057 SLP099 T11001111
PAOM 152053Z 09023KT 2SM BLSN BR FEW025 OVC034 M09/M11 A2986 RMK AO2 PK WND 10032/2035 SLP110 60000 T10941106 56013
PAOM 152023Z 10021G30KT 2SM BLSN BR FEW021 OVC032 M09/M11 A2986 RMK AO2 PK WND 09030/2021 T10941106
PAOM 152016Z 09022KT 3SM BLSN BR SCT020 OVC033 M09/M11 A2985 RMK AO2 PK WND 09029/1958 T10941106
PAOM 151953Z 09022G27KT 2SM BLSN BR OVC016 M09/M11 A2986 RMK AO2 PK WND 10030/1855 SNE49 SLP112 P0000 T10941106
PAOM 151947Z 09023G27KT 2SM -SN BR OVC016 M10/M11 A2986 RMK AO2 PK WND 10030/1855 P0000
PAOM 151934Z 09021KT 1 1/2SM -SN BR OVC011 M10/M11 A2987 RMK AO2 PK WND 10030/1855 P0000 T11001106
PAOM 151853Z 09022G29KT 1 1/4SM R28/5500VP6000FT -SN BR OVC008 M10/M11 A2988 RMK PK WND 09029/1839 UPB13E17SNE12B17 SLP118 P0000 T11001106 VIA AUTODIAL
PAOM 151753Z 08019G27KT 1 1/4SM -SN BR OVC006 M10/M11 A2989 RMK AO2 PK WND 09031/1728 SLP123 P0000 60001 T11001106 11100 21106 56008
PAOM 151653Z 08019G28KT 1 1/2SM -SN BR OVC007 M10/M11 A2990 RMK AO2 PK WND 08030/1608 UPE19SNB20 SLP126 P0000 T11001106
PAOM 151619Z 08024G30KT 1SM R28/6000VP6000FT BR OVC006 M10/M11 A2989 RMK AO2 PK WND 08030/1608 UPE19 P0000 T11001106
PAOM 151553Z AUTO 08020G27KT 3/4SM R28/3500V5500FT UP BR OVC006 M10/M11 A2990 RMK AO2 PK WND 07030/1501 UPB08 SLP125 P0000 T11001106 TSNO
PAOM 151540Z AUTO 08019KT 3/4SM R28/5000VP6000FT UP BR OVC006 M10/M11 A2991 RMK AO2 PK WND 07030/1501 UPB08 P0000 T11001106 TSNO
PAOM 151511Z AUTO 08020G27KT 1 1/2SM UP BR OVC006 M10/M11 A2992 RMK AO2 PK WND 07030/1501 UPB08 P0000 T11001111 TSNO
PAOM 151453Z AUTO 08019G27KT 2 1/2SM BR OVC007 M10/M11 A2992 RMK AO2 PK WND 07030/1419 UPE40 SLP131 P0000 60001 T11001111 55004 TSNO
PAOM 151444Z AUTO 08020G26KT 2 1/2SM BR OVC007 M10/M11 A2992 RMK AO2 PK WND 07030/1419 UPE40 P0000 T11001111 TSNO
PAOM 151353Z AUTO 08020G29KT 1SM R28/P6000FT UP BR OVC009 M10/M11 A2991 RMK AO2 PK WND 07030/1258 UPB1259SNE1259 SLP129 P0001 T11001111 TSNO
PAOM 151351Z AUTO 08022G29KT 1SM R28/5000VP6000FT UP BR OVC010 M11/M11 A2991 RMK AO2 PK WND 07030/1258 UPB1259SNE1259 P0001 TSNO
PAOM 151337Z AUTO 08021G29KT 1/2SM R28/4000VP6000FT UP FZFG BKN010 OVC014 M11/M11 A2991 RMK AO2 PK WND 07030/1258 UPB1259SNE1259 P0001 T11061111 TSNO
PAOM 151323Z AUTO 08019G28KT 3/4SM R28/4500V5500FT UP BR SCT009 OVC014 M11/M11 A2992 RMK AO2 PK WND 07030/1258 UPB1259SNE1259 P0001 T11061111 TSNO
PAOM 151300Z AUTO 07022G30KT 3/4SM R28/3500V6000FT UP BR OVC008 M11/M11 A2993 RMK AO2 PK WND 07030/1258 UPB1259SNE1259 P0000 T11061111 TSNO
PAOM 151253Z AUTO 08021G27KT 1SM R28/5000VP6000FT -SN BR OVC008 M11/M11 A2993 RMK AO2 PK WND 08027/1155 UPE47SNB47 SLP136 P0000 T11061111 TSNO
PAOM 151250Z AUTO 08020G26KT 1SM R28/5500VP6000FT -SN BR OVC007 M11/M11 A2993 RMK AO2 PK WND 08027/1155 UPE47SNB47 P0000 TSNO
PAOM 151226Z AUTO 08019KT 3/4SM R28/5000VP6000FT UP BR OVC006 M11/M11 A2993 RMK AO2 PK WND 08027/1155 P0000 T11061111 TSNO
PAOM 151206Z AUTO 08020KT 1SM R28/5000VP6000FT UP BR OVC008 M11/M12 A2993 RMK AO2 PK WND 08027/1155 P0000 T11061117 TSNO
PAOM 151153Z AUTO 08019G28KT 3/4SM R28/5500VP6000FT UP BR OVC008 M11/M11 A2993 RMK AO2 PK WND 08028/1140 SLP134 P0000 60000 I1000 I6000 T11061111 11100 21106 51003 TSNO
PAOM 151053Z AUTO 08020G27KT 1 1/4SM UP BR OVC008 M11/M12 A2992 RMK AO2 PK WND 07027/1043 SLP133 P0000 T11061117 TSNO
PAOM 150953Z AUTO 07016G26KT 1SM R28/6000VP6000FT UP BR OVC009 M11/M12 A2992 RMK AO2 PK WND 07026/0923 UPB10SNE10 SLP131 P0000 T11061117 TSNO
PAOM 150853Z 09019KT 1 1/4SM -SN BLSN OVC009 M11/M11 A2990 RMK AO2 PK WND 10027/0834 SLP126 P0000 60000 I3000 T11061111 411001183 53009
PAOM 150834Z 09023KT 1 1/4SM -SN BLSN OVC009 M11/M11 A2990 RMK AO2 PK WND 10027/0834 P0000 T11061111
PAOM 150753Z 09021KT 1 1/2SM -SN BLSN OVC010 M11/M11 A2988 RMK AO2 PK WND 09026/0727 SNE05B41 SLP118 P0000 I1000 T11061111
PAOM 150703Z 09021KT 2 1/2SM -SN BLSN OVC011 M11/M11 A2987 RMK AO2 PK WND 09026/0702 P0000 T11061111
PAOM 150653Z 09019KT 3SM -SN BLSN OVC011 M11/M11 A2987 RMK AO2 PK WND 09027/0651 SNB51 SLP116 P0000 T11061111
PAOM 150641Z 09022KT 4SM BLSN OVC011 M11/M11 A2988 RMK AO2 PK WND 09027/0633 T11061111
PAOM 150553Z COR 09020KT 2SM BLSN BKN013 OVC019 M11/M12 A2988 RMK PK WND 09029/0508 SNE34 SLP117 P0000 60000 T11061117 11106 21111 56000 VIA AUTODIAL
PAOM 150551Z 09019KT 2 1/2SM BLSN BKN013 OVC019 M11/M12 A2988 RMK PK WND 09029/0508 SNE34 P0000 VIA AUTODIAL
PAOM 150543Z 09020KT 2SM BLSN OVC016 M11/M12 A2988 RMK PK WND 09029/0508 SNE34 P0000 T11061117 VIA AUTODIAL
PAOM 150453Z 09023KT 1 3/4SM -SN BLSN BKN023 BKN031 OVC040 M11/M12 A2987 RMK PK WND 09028/0440 SLP116 P0000 T11111117 VIA AUTODIAL
PAOM 150448Z 09023KT 2SM -SN BLSN BKN023 BKN030 OVC040 M11/M12 A2987 RMK PK WND 09028/0440 P0000 VIA AUTODIAL
PAOM 150436Z 09021KT 1 1/4SM -SN BLSN BKN030 OVC040 M11/M12 A2987 RMK PK WND 09028/0406 P0000 T11111117 VIA AUTODIAL
PAOM 150353Z 09022G27KT 1SM R28/P6000FT -SN BLSN OVC028 M11/M12 A2988 RMK PK WND 09028/0341 SLP118 P0000 T11111122 VIA AUTODIAL
PAOM 150351Z 09020G27KT 1SM R28/P6000FT -SN BLSN BKN028 OVC038 M11/M12 A2988 RMK PK WND 09028/0341 P0000 VIA AUTODIAL
PAOM 150342Z 09021G28KT 1SM R28/5500VP6000FT -SN BLSN OVC030 M11/M12 A2987 RMK PK WND 09028/0341 CIG 025 NE P0000 T11111122 VIA AUTODIAL
PAOM 150337Z 09021KT 3/4SM R28/5000VP6000FT -SN BLSN OVC030 M11/M12 A2987 RMK PK WND 09027/0326 CIG 021 NE P0000 T11111122 VIA AUTODIAL
PAOM 150256Z COR 09020KT 3/4SM R28/4000V5000FT -SN BLSN VV019 M11/M12 A2988 RMK P0000 T11111122 VIA AUTODIAL
PAOM 150253Z 09021G29KT 1/2SM R28/4000VP6000FT SN FZFG VV019 M11/M12 A2988 RMK PK WND 09029/0246 SLP118 P0000 60000 T11111122 56015 VIA AUTODIAL
PAOM 150251Z 09021G29KT 1/2SM R28/4000VP6000FT SN FZFG VV020 M11/M12 A2988 RMK PK WND 09029/0246 P0000 VIA AUTODIAL
PAOM 150245Z 09021KT 1SM R28/5500VP6000FT -SN BR OVC025 M11/M12 A2988 RMK PK WND 08027/0206 P0000 T11111122 VIA AUTODIAL
PAOM 150239Z 09020G26KT 3/4SM R28/5500VP6000FT -SN BR OVC027 M11/M12 A2988 RMK PK WND 08027/0206 P0000 T11111122 VIA AUTODIAL
PAOM 150211Z 09022G27KT 1 1/4SM R28/6000VP6000FT -SN BR BKN036 OVC055 M11/M12 A2989 RMK PK WND 08027/0206 P0000 T11111122 VIA AUTODIAL
PAOM 150153Z 09019KT 1 1/4SM R28/5500VP6000FT -SN BR OVC025 M11/M12 A2989 RMK AO2 PK WND 10026/0123 UPB31E33SNB08E31B33 SLP121 P0000 T11111122
PAOM 150148Z 09020KT 2SM -SN BR OVC026 M11/M12 A2989 RMK AO2 PK WND 10026/0123 UPB31E33SNB08E31B33 P0000
PAOM 150142Z 09019KT 3SM -SN BR OVC028 M11/M12 A2990 RMK AO2 PK WND 10026/0123 UPB31E33SNB08E31B33 P0000 T11111122
PAOM 150053Z 09020KT 6SM BR OVC055 M11/M12 A2992 RMK AO2 PK WND 10027/0047 SLP133 T11061122